Time;durP1;ratioP1;P1;durP2;ratioP2;P2;SDS_P1;SDS_P2;PMS_P1;PMS_P2;Temp;Humidity;BMP_temperature;BMP_pressure;BME280_temperature;BME280_humidity;BME280_pressure;Samples;Min_cycle;Max_cycle;Signal;HPM_P1;HPM_P2
2022/05/13 00:00:26;;;;;;;16.55;7.72;;;12.50;99.90;;;;;;5000642;28;20488;-82
2022/05/13 00:02:52;;;;;;;17.40;8.02;;;12.50;99.90;;;;;;5000057;28;20042;-82
2022/05/13 00:05:17;;;;;;;18.40;7.93;;;12.40;99.90;;;;;;5000398;28;20050;-82
2022/05/13 00:07:43;;;;;;;17.38;6.85;;;12.40;99.90;;;;;;5000189;28;20037;-81
2022/05/13 00:10:10;;;;;;;18.88;8.15;;;12.50;99.90;;;;;;5017639;28;20100;-82
2022/05/13 00:12:40;;;;;;;16.60;7.60;;;12.40;99.90;;;;;;5000210;28;20429;-82
2022/05/13 00:15:11;;;;;;;16.88;8.23;;;12.40;99.90;;;;;;5000194;28;20181;-82
2022/05/13 00:17:37;;;;;;;19.13;7.72;;;12.40;99.90;;;;;;4999788;28;20104;-82
2022/05/13 00:20:04;;;;;;;14.40;7.07;;;12.40;99.90;;;;;;5000175;28;20041;-81
2022/05/13 00:22:29;;;;;;;18.52;7.45;;;12.40;99.90;;;;;;5017399;28;20371;-82
2022/05/13 00:24:55;;;;;;;19.38;6.93;;;12.40;99.90;;;;;;4999946;28;20123;-82
2022/05/13 00:27:22;;;;;;;17.50;6.80;;;12.40;99.90;;;;;;5000058;28;20048;-81
2022/05/13 00:29:48;;;;;;;19.17;7.15;;;12.40;99.90;;;;;;5017169;28;20038;-82
2022/05/13 00:32:14;;;;;;;23.40;7.40;;;12.40;99.90;;;;;;4999623;28;20053;-82
2022/05/13 00:34:39;;;;;;;22.75;7.07;;;12.40;99.90;;;;;;5017330;28;20048;-82
2022/05/13 00:37:05;;;;;;;24.15;8.05;;;12.50;99.90;;;;;;5017038;28;20501;-81
2022/05/13 00:39:31;;;;;;;13.95;6.28;;;12.40;99.90;;;;;;5017210;28;20057;-82
2022/05/13 00:42:08;;;;;;;26.38;7.95;;;12.50;99.90;;;;;;4999823;28;20045;-81
2022/05/13 00:44:34;;;;;;;22.30;7.22;;;12.50;99.90;;;;;;4999434;28;20485;-81
2022/05/13 00:47:01;;;;;;;19.88;7.15;;;12.50;99.90;;;;;;4999387;28;20049;-81
2022/05/13 00:49:32;;;;;;;19.33;7.53;;;12.50;99.90;;;;;;4999299;28;20409;-81
2022/05/13 00:52:00;;;;;;;26.42;7.68;;;12.50;99.90;;;;;;4999680;28;20125;-81
2022/05/13 00:54:27;;;;;;;22.40;7.35;;;12.50;99.90;;;;;;5016717;28;20050;-82
2022/05/13 00:56:57;;;;;;;26.98;8.15;;;12.50;99.90;;;;;;4999158;28;20054;-81
2022/05/13 00:59:29;;;;;;;21.95;7.07;;;12.50;99.90;;;;;;5016863;28;20067;-81
2022/05/13 01:01:55;;;;;;;27.65;7.53;;;12.50;99.90;;;;;;5016731;28;20085;-81
2022/05/13 01:04:22;;;;;;;23.45;7.75;;;12.50;99.90;;;;;;5016793;28;20065;-82
2022/05/13 01:06:54;;;;;;;22.33;7.13;;;12.50;99.90;;;;;;4998194;28;20121;-81
2022/05/13 01:09:21;;;;;;;29.13;7.75;;;12.50;99.90;;;;;;4999233;28;20048;-82
2022/05/13 01:11:52;;;;;;;26.40;7.05;;;12.50;99.90;;;;;;5016603;28;20046;-81
2022/05/13 01:14:34;;;;;;;25.52;7.93;;;12.50;99.90;;;;;;4998806;28;20481;-82
2022/05/13 01:20:24;;;;;;;;;;;12.60;99.90;;;;;;4999222;28;20285;-82
2022/05/13 01:23:00;;;;;;;25.40;6.88;;;12.60;99.90;;;;;;4999028;28;20011;-81
2022/05/13 01:25:28;;;;;;;27.33;8.05;;;12.60;99.90;;;;;;4999108;28;20046;-82
2022/05/13 01:28:04;;;;;;;27.05;8.02;;;12.60;99.90;;;;;;4998791;28;20073;-82
2022/05/13 01:30:30;;;;;;;31.60;8.05;;;12.50;99.90;;;;;;4998992;28;20072;-81
2022/05/13 01:32:56;;;;;;;34.70;9.00;;;12.50;99.90;;;;;;5016135;28;20050;-82
2022/05/13 01:35:22;;;;;;;37.05;8.90;;;12.60;99.90;;;;;;4998540;28;20046;-81
2022/05/13 01:37:49;;;;;;;30.35;7.63;;;12.60;99.90;;;;;;5015690;28;20045;-82
2022/05/13 01:40:14;;;;;;;29.73;8.00;;;12.60;99.90;;;;;;5016553;28;20041;-82
2022/05/13 01:42:40;;;;;;;27.42;7.13;;;12.60;99.90;;;;;;4999023;28;20073;-82
2022/05/13 01:45:08;;;;;;;30.50;9.10;;;12.60;99.90;;;;;;5016025;28;20049;-81
2022/05/13 01:47:34;;;;;;;27.42;7.55;;;12.50;99.90;;;;;;5015962;28;20046;-82
2022/05/13 01:50:01;;;;;;;28.00;7.25;;;12.50;99.90;;;;;;5015741;28;20389;-82
2022/05/13 01:52:26;;;;;;;26.05;8.30;;;12.50;99.90;;;;;;4998265;28;20054;-82
2022/05/13 01:54:52;;;;;;;33.47;8.30;;;12.60;99.90;;;;;;5017401;28;20129;-83
2022/05/13 01:57:18;;;;;;;30.40;8.98;;;12.50;99.90;;;;;;5015772;28;20089;-82
2022/05/13 01:59:44;;;;;;;26.80;7.65;;;12.50;99.90;;;;;;4998045;28;20112;-82
2022/05/13 02:02:09;;;;;;;24.77;7.10;;;12.60;99.90;;;;;;4998321;28;20041;-82
2022/05/13 02:04:35;;;;;;;33.35;8.23;;;12.50;99.90;;;;;;4998022;28;20441;-82
2022/05/13 02:07:01;;;;;;;32.33;8.40;;;12.50;99.90;;;;;;4998338;28;20081;-82
2022/05/13 02:09:26;;;;;;;26.50;7.70;;;12.60;99.90;;;;;;5015533;28;20474;-82
2022/05/13 02:11:52;;;;;;;22.52;7.03;;;12.50;99.90;;;;;;4998044;28;20121;-82
2022/05/13 02:14:18;;;;;;;22.58;7.20;;;12.50;99.90;;;;;;4997784;28;20096;-82
2022/05/13 02:16:44;;;;;;;22.45;7.63;;;12.50;99.90;;;;;;4997601;28;20096;-82
2022/05/13 02:19:10;;;;;;;21.83;7.05;;;12.50;99.90;;;;;;4997032;28;20050;-82
2022/05/13 02:21:37;;;;;;;24.50;7.90;;;12.40;99.90;;;;;;5015361;28;20493;-82
2022/05/13 02:24:04;;;;;;;27.15;7.93;;;12.40;99.90;;;;;;4997695;28;20042;-82
2022/05/13 02:26:33;;;;;;;33.70;7.90;;;12.40;99.90;;;;;;5015206;28;20437;-82
2022/05/13 02:29:01;;;;;;;19.40;6.97;;;12.40;99.90;;;;;;5015056;28;20545;-82
2022/05/13 02:31:27;;;;;;;21.42;7.05;;;12.40;99.90;;;;;;5015010;28;20165;-82
2022/05/13 02:33:53;;;;;;;22.40;8.35;;;12.40;99.90;;;;;;4997481;28;20058;-82
2022/05/13 02:36:19;;;;;;;28.75;7.50;;;12.40;99.90;;;;;;4997497;28;20112;-82
2022/05/13 02:38:45;;;;;;;26.08;8.00;;;12.40;99.90;;;;;;4997481;28;20512;-82
2022/05/13 02:41:13;;;;;;;25.77;7.65;;;12.40;99.90;;;;;;4997240;28;20493;-82
2022/05/13 02:43:44;;;;;;;29.17;8.80;;;12.40;99.90;;;;;;4997290;28;20081;-81
2022/05/13 02:46:11;;;;;;;20.52;7.95;;;12.30;99.90;;;;;;4997536;28;20061;-82
2022/05/13 02:48:37;;;;;;;25.73;7.78;;;12.40;99.90;;;;;;4997235;28;20057;-82
2022/05/13 02:51:03;;;;;;;26.83;7.78;;;12.40;99.90;;;;;;5014719;28;20041;-82
2022/05/13 02:53:28;;;;;;;25.27;8.77;;;12.40;99.90;;;;;;4997156;28;20049;-82
2022/05/13 02:55:54;;;;;;;27.67;8.05;;;12.40;99.90;;;;;;4997065;28;20469;-82
2022/05/13 02:58:20;;;;;;;31.08;9.10;;;12.30;99.90;;;;;;4996942;28;20050;-82
2022/05/13 03:00:46;;;;;;;25.98;8.13;;;12.30;99.90;;;;;;5014609;28;20046;-82
2022/05/13 03:03:12;;;;;;;27.48;8.93;;;12.40;99.90;;;;;;4997011;28;20042;-82
2022/05/13 03:05:38;;;;;;;29.80;8.20;;;12.40;99.90;;;;;;5014476;28;20104;-82
2022/05/13 03:08:06;;;;;;;28.90;7.95;;;12.40;99.90;;;;;;4996939;28;20045;-82
2022/05/13 03:10:35;;;;;;;25.55;8.68;;;12.40;99.90;;;;;;5014459;28;20046;-82
2022/05/13 03:13:01;;;;;;;33.28;9.02;;;12.40;99.90;;;;;;4996577;28;20092;-82
2022/05/13 03:15:27;;;;;;;26.23;8.48;;;12.40;99.90;;;;;;5014064;28;20042;-83
2022/05/13 03:17:53;;;;;;;27.25;9.13;;;12.40;99.90;;;;;;4996778;28;20034;-84
2022/05/13 03:20:20;;;;;;;22.48;7.80;;;12.40;99.90;;;;;;5014234;28;20037;-81
2022/05/13 03:22:47;;;;;;;23.92;7.72;;;12.50;99.90;;;;;;4996696;28;20145;-81
2022/05/13 03:25:14;;;;;;;21.45;8.02;;;12.40;99.90;;;;;;4996846;28;20544;-81
2022/05/13 03:27:40;;;;;;;32.15;8.38;;;12.40;99.90;;;;;;4996518;28;20096;-82
2022/05/13 03:30:08;;;;;;;24.45;8.60;;;12.40;99.90;;;;;;4996533;28;20081;-82
2022/05/13 03:32:33;;;;;;;27.77;8.35;;;12.50;99.90;;;;;;4996637;28;20142;-81
2022/05/13 03:34:59;;;;;;;29.13;7.88;;;12.50;99.90;;;;;;4996605;28;20088;-81
2022/05/13 03:37:25;;;;;;;24.67;7.30;;;12.50;99.90;;;;;;5013902;28;20485;-81
2022/05/13 03:39:50;;;;;;;23.55;7.15;;;12.50;99.90;;;;;;4996583;28;20089;-82
2022/05/13 03:42:16;;;;;;;27.30;9.18;;;12.50;99.90;;;;;;5014041;28;20042;-82
2022/05/13 03:44:43;;;;;;;29.88;8.02;;;12.50;99.90;;;;;;5013959;28;20441;-81
2022/05/13 03:47:09;;;;;;;29.30;8.07;;;12.50;99.90;;;;;;5013931;28;20192;-82
2022/05/13 03:49:34;;;;;;;26.25;8.18;;;12.50;99.90;;;;;;4996440;28;20137;-82
2022/05/13 03:52:00;;;;;;;21.55;7.78;;;12.50;99.90;;;;;;4996178;28;20405;-82
2022/05/13 03:54:26;;;;;;;23.90;7.72;;;12.50;99.90;;;;;;4996124;28;20128;-82
2022/05/13 03:56:52;;;;;;;28.10;8.02;;;12.50;99.90;;;;;;4996410;28;20133;-82
2022/05/13 03:59:18;;;;;;;25.13;8.38;;;12.50;99.90;;;;;;4995979;28;20048;-82
2022/05/13 04:01:44;;;;;;;26.83;8.27;;;12.50;99.90;;;;;;4996177;28;20053;-82
2022/05/13 04:04:10;;;;;;;22.17;7.18;;;12.50;99.90;;;;;;4995811;28;20081;-82
2022/05/13 04:09:19;;;;;;;28.20;8.40;;;12.50;99.90;;;;;;4995146;28;20184;-81
2022/05/13 04:16:04;;;;;;;29.08;7.70;;;12.50;99.90;;;;;;4995120;28;20164;-82
2022/05/13 04:17:15;;;;;;;24.95;7.60;;;12.50;99.90;;;;;;4996140;28;20104;-82
2022/05/13 04:19:40;;;;;;;19.25;7.80;;;12.50;99.90;;;;;;5013642;28;20381;-82
2022/05/13 04:22:13;;;;;;;20.52;7.50;;;12.50;99.90;;;;;;4995671;28;20378;-82
2022/05/13 04:24:39;;;;;;;28.60;7.78;;;12.50;99.90;;;;;;4995649;28;20069;-82
2022/05/13 04:27:05;;;;;;;22.30;7.53;;;12.50;99.90;;;;;;4995719;28;20077;-81
2022/05/13 04:29:33;;;;;;;17.75;7.25;;;12.50;99.90;;;;;;5013399;28;20115;-81
2022/05/13 04:31:59;;;;;;;25.52;7.05;;;12.50;99.90;;;;;;5013431;28;20057;-82
2022/05/13 04:34:24;;;;;;;25.25;7.78;;;12.50;99.90;;;;;;5013210;28;20046;-82
2022/05/13 04:36:51;;;;;;;19.45;6.90;;;12.50;99.90;;;;;;5013218;28;20412;-82
2022/05/13 04:39:17;;;;;;;15.57;6.85;;;12.50;99.90;;;;;;5013401;28;20050;-82
2022/05/13 04:44:27;;;;;;;18.33;7.43;;;12.50;99.90;;;;;;4999515;28;20061;-82
2022/05/13 04:46:52;;;;;;;20.02;6.93;;;12.50;99.90;;;;;;4999560;28;20042;-82
2022/05/13 04:49:18;;;;;;;19.10;6.50;;;12.50;99.90;;;;;;4999485;28;20058;-82
2022/05/13 04:51:43;;;;;;;15.93;6.32;;;12.50;99.90;;;;;;4999222;28;20046;-82
2022/05/13 04:54:09;;;;;;;16.83;6.15;;;12.50;99.90;;;;;;4999107;28;20053;-82
2022/05/13 04:56:36;;;;;;;16.08;5.35;;;12.50;99.90;;;;;;4999009;28;20038;-82
2022/05/13 04:59:01;;;;;;;11.30;4.50;;;12.50;99.90;;;;;;4999223;28;20056;-82
2022/05/13 05:01:27;;;;;;;12.40;4.35;;;12.50;99.90;;;;;;5016474;28;20417;-82
2022/05/13 05:03:53;;;;;;;9.68;3.72;;;12.50;99.90;;;;;;4999154;28;20057;-82
2022/05/13 05:06:20;;;;;;;9.00;3.50;;;12.60;99.90;;;;;;5016270;28;20393;-82
2022/05/13 05:08:46;;;;;;;8.75;3.28;;;12.60;99.90;;;;;;4999042;28;20053;-82
2022/05/13 05:11:14;;;;;;;13.98;3.50;;;12.70;99.90;;;;;;4998775;28;20485;-82
2022/05/13 05:13:42;;;;;;;11.15;3.22;;;12.70;99.90;;;;;;4998845;28;20054;-82
2022/05/13 05:16:08;;;;;;;15.70;4.45;;;12.70;99.90;;;;;;4998878;28;20512;-82
2022/05/13 05:18:36;;;;;;;12.25;4.38;;;12.70;99.90;;;;;;5016568;28;20100;-82
2022/05/13 05:21:03;;;;;;;10.68;3.63;;;12.80;99.90;;;;;;5016117;28;20616;-83
2022/05/13 05:23:32;;;;;;;10.00;3.80;;;12.80;99.90;;;;;;4998824;28;20046;-83
2022/05/13 05:25:58;;;;;;;9.50;3.20;;;12.80;99.90;;;;;;4998806;28;20073;-83
2022/05/13 05:28:26;;;;;;;10.70;2.83;;;12.80;99.90;;;;;;4998504;28;20045;-83
2022/05/13 05:30:52;;;;;;;10.65;3.45;;;12.90;99.90;;;;;;5016161;28;20046;-84
2022/05/13 05:33:18;;;;;;;10.75;3.80;;;12.80;99.90;;;;;;4998504;28;20129;-83
2022/05/13 05:35:44;;;;;;;14.75;3.83;;;12.80;99.90;;;;;;5015813;28;20520;-82
2022/05/13 05:38:10;;;;;;;8.15;3.03;;;12.90;99.90;;;;;;5006632;28;20434;-82
2022/05/13 05:40:37;;;;;;;13.68;3.00;;;12.80;99.90;;;;;;4996473;28;20494;-82
2022/05/13 05:43:09;;;;;;;9.85;3.10;;;12.80;99.90;;;;;;4997846;28;20049;-84
2022/05/13 05:45:37;;;;;;;14.88;3.00;;;12.90;99.90;;;;;;5015678;28;20045;-83
2022/05/13 05:48:04;;;;;;;7.38;3.03;;;12.80;99.90;;;;;;5015696;28;20038;-82
2022/05/13 05:50:31;;;;;;;9.82;3.00;;;12.90;99.90;;;;;;5015588;28;20041;-82
2022/05/13 05:52:57;;;;;;;9.73;3.58;;;12.90;99.90;;;;;;4997809;28;20040;-81
2022/05/13 05:58:13;;;;;;;11.70;2.97;;;12.90;99.90;;;;;;4997913;28;20140;-82
2022/05/13 06:00:42;;;;;;;14.13;3.30;;;12.90;99.90;;;;;;4997805;28;20379;-81
2022/05/13 06:03:09;;;;;;;11.40;3.35;;;13.00;99.90;;;;;;4998091;28;20789;-82
2022/05/13 06:05:35;;;;;;;16.40;3.47;;;12.90;99.90;;;;;;4997974;28;20069;-82
2022/05/13 06:08:02;;;;;;;13.95;4.15;;;12.90;99.90;;;;;;4998010;28;20401;-83
2022/05/13 06:10:29;;;;;;;11.02;3.33;;;12.90;99.90;;;;;;5014270;28;20140;-82
2022/05/13 06:12:55;;;;;;;13.77;3.83;;;13.00;99.90;;;;;;5015047;28;20040;-82
2022/05/13 06:15:21;;;;;;;16.42;4.95;;;12.90;99.90;;;;;;4997786;28;20057;-82
2022/05/13 06:17:54;;;;;;;14.90;5.47;;;12.90;99.90;;;;;;5015059;28;20399;-80
2022/05/13 06:20:30;;;;;;;9.73;3.90;;;13.00;99.90;;;;;;4997865;28;20049;-81
2022/05/13 06:22:57;;;;;;;10.93;3.80;;;13.00;99.90;;;;;;4997497;28;20049;-81
2022/05/13 06:25:23;;;;;;;13.57;3.90;;;13.00;99.90;;;;;;5014848;28;20056;-81
2022/05/13 06:27:51;;;;;;;10.93;3.17;;;13.10;99.90;;;;;;4997252;28;20084;-81
2022/05/13 06:30:29;;;;;;;11.05;3.92;;;13.20;99.90;;;;;;4997313;28;20517;-81
2022/05/13 06:32:56;;;;;;;14.18;3.60;;;13.20;99.90;;;;;;4997367;28;20548;-81
2022/05/13 06:35:23;;;;;;;14.75;4.10;;;13.20;99.90;;;;;;4997170;28;20060;-81
2022/05/13 06:37:48;;;;;;;9.63;3.78;;;13.30;99.90;;;;;;5026815;28;20049;-81
2022/05/13 06:40:14;;;;;;;11.05;3.25;;;13.30;99.90;;;;;;5034665;28;20055;-81
2022/05/13 06:42:40;;;;;;;13.00;3.50;;;13.40;99.90;;;;;;5016994;28;20046;-81
2022/05/13 06:45:06;;;;;;;11.60;4.13;;;13.30;99.90;;;;;;5034624;28;20099;-81
2022/05/13 06:47:32;;;;;;;10.45;3.28;;;13.30;99.90;;;;;;5034468;28;20046;-81
2022/05/13 06:50:06;;;;;;;12.52;4.20;;;13.30;99.90;;;;;;5016833;28;20080;-81
2022/05/13 06:52:35;;;;;;;10.48;3.13;;;13.40;99.90;;;;;;5016665;28;20136;-81
2022/05/13 06:55:01;;;;;;;11.00;3.38;;;13.60;99.90;;;;;;5016539;28;20493;-81
2022/05/13 06:57:27;;;;;;;11.02;3.20;;;13.80;99.90;;;;;;5016844;28;20056;-82
2022/05/13 06:59:52;;;;;;;12.45;3.45;;;13.90;99.90;;;;;;5016469;28;20461;-81
2022/05/13 07:02:19;;;;;;;11.65;2.88;;;14.00;99.90;;;;;;5016357;28;20107;-81
2022/05/13 07:04:45;;;;;;;11.88;3.28;;;14.20;99.90;;;;;;5016030;28;20077;-79
2022/05/13 07:07:12;;;;;;;9.88;3.10;;;14.10;99.90;;;;;;5033952;28;20073;-87
2022/05/13 07:09:38;;;;;;;7.28;2.50;;;14.00;99.90;;;;;;5016471;28;20557;-83
2022/05/13 07:12:05;;;;;;;14.75;3.55;;;14.10;99.90;;;;;;5033829;28;20496;-84
2022/05/13 07:14:31;;;;;;;12.98;4.10;;;14.00;99.90;;;;;;5033965;28;20045;-81
2022/05/13 07:16:56;;;;;;;11.57;3.50;;;14.30;99.90;;;;;;5025682;28;20386;-81
2022/05/13 07:19:22;;;;;;;11.20;2.72;;;14.70;99.90;;;;;;5017038;28;20045;-80
2022/05/13 07:21:48;;;;;;;11.70;3.38;;;15.00;99.90;;;;;;5033535;28;20041;-80
2022/05/13 07:24:14;;;;;;;11.30;2.75;;;15.30;99.90;;;;;;5015831;28;20049;-81
2022/05/13 07:26:39;;;;;;;12.50;2.58;;;15.10;99.90;;;;;;5016041;28;20053;-80
2022/05/13 07:29:05;;;;;;;14.48;3.22;;;14.90;99.90;;;;;;5015885;28;20038;-80
2022/05/13 07:31:32;;;;;;;12.80;2.63;;;14.80;99.90;;;;;;5015980;28;20054;-81
2022/05/13 07:33:58;;;;;;;14.30;3.00;;;14.60;99.90;;;;;;5015571;28;20404;-80
2022/05/13 07:36:23;;;;;;;8.20;2.65;;;14.50;99.90;;;;;;5015522;28;20489;-80
2022/05/13 07:41:33;;;;;;;13.20;3.53;;;14.40;99.90;;;;;;5033483;28;20052;-81
2022/05/13 07:43:58;;;;;;;11.63;2.72;;;14.40;99.90;;;;;;5015872;28;20049;-81
2022/05/13 07:46:24;;;;;;;10.63;3.20;;;14.40;99.90;;;;;;5033234;28;20056;-80
2022/05/13 07:48:51;;;;;;;12.27;3.35;;;14.40;99.90;;;;;;5015475;28;20191;-81
2022/05/13 07:51:17;;;;;;;11.68;3.42;;;14.50;99.90;;;;;;5015611;28;20058;-80
2022/05/13 07:53:43;;;;;;;12.18;3.63;;;14.50;99.90;;;;;;5015537;28;20050;-83
2022/05/13 07:56:09;;;;;;;10.68;3.83;;;14.50;99.90;;;;;;5015654;28;20073;-81
2022/05/13 07:58:36;;;;;;;10.65;2.85;;;14.50;99.90;;;;;;5015698;28;20053;-79
2022/05/13 08:01:01;;;;;;;10.98;2.97;;;14.50;99.90;;;;;;5015632;28;20038;-79
2022/05/13 08:03:30;;;;;;;16.40;2.97;;;14.50;99.90;;;;;;5015268;28;20568;-79
2022/05/13 08:06:02;;;;;;;12.38;3.20;;;14.60;99.90;;;;;;5015271;28;20077;-80
2022/05/13 08:08:36;;;;;;;10.95;2.97;;;14.80;99.90;;;;;;5045409;28;20045;-79
2022/05/13 08:11:04;;;;;;;11.30;2.95;;;15.10;99.90;;;;;;5053095;28;20076;-80
2022/05/13 08:13:31;;;;;;;9.95;3.22;;;15.10;99.90;;;;;;5035175;28;20049;-80
2022/05/13 08:15:58;;;;;;;11.30;3.30;;;15.00;99.90;;;;;;5053176;28;20049;-80
2022/05/13 08:18:24;;;;;;;10.20;3.60;;;15.00;99.90;;;;;;5056046;28;20399;-80
2022/05/13 08:20:51;;;;;;;13.70;3.10;;;15.00;99.90;;;;;;5039332;28;20052;-80
2022/05/13 08:23:17;;;;;;;14.68;3.17;;;14.90;99.90;;;;;;5038926;28;20077;-80
2022/05/13 08:25:44;;;;;;;14.23;3.95;;;14.90;99.90;;;;;;5038887;28;20041;-80
2022/05/13 08:28:11;;;;;;;12.10;3.22;;;15.00;99.90;;;;;;5039094;28;20090;-80
2022/05/13 08:30:37;;;;;;;14.30;3.03;;;15.00;99.90;;;;;;5038492;28;20082;-80
2022/05/13 08:33:08;;;;;;;12.90;2.65;;;15.20;99.90;;;;;;5056836;28;20041;-79
2022/05/13 08:35:35;;;;;;;11.15;3.17;;;15.10;99.90;;;;;;5072027;28;20083;-79
2022/05/13 08:38:01;;;;;;;14.73;3.17;;;15.20;99.90;;;;;;5043683;28;20110;-79
2022/05/13 08:40:49;;;;;;;12.70;3.03;;;15.30;99.90;;;;;;5056454;28;20040;-79
2022/05/13 08:43:34;;;;;;;11.48;3.90;;;15.50;99.90;;;;;;5055331;28;20549;-79
2022/05/13 08:46:16;;;;;;;8.55;2.70;;;15.50;99.90;;;;;;5055130;28;20045;-79
2022/05/13 08:48:47;;;;;;;14.43;3.63;;;15.50;99.90;;;;;;5042002;28;20041;-79
2022/05/13 08:51:28;;;;;;;9.52;2.63;;;15.50;99.90;;;;;;5035356;28;20157;-79
2022/05/13 08:54:16;;;;;;;12.80;3.30;;;15.70;99.90;;;;;;5038507;28;20049;-81
2022/05/13 08:56:54;;;;;;;13.13;3.35;;;15.90;99.90;;;;;;5038563;28;20048;-79
2022/05/13 08:59:27;;;;;;;8.98;2.47;;;15.90;99.90;;;;;;5038400;28;20047;-81
2022/05/13 09:02:00;;;;;;;10.57;2.40;;;15.90;99.90;;;;;;5038072;28;20049;-80
2022/05/13 09:04:40;;;;;;;12.77;2.92;;;16.00;99.90;;;;;;5038524;28;20463;-80
2022/05/13 09:07:16;;;;;;;9.40;2.65;;;16.10;99.90;;;;;;5040795;28;20513;-80
2022/05/13 09:09:44;;;;;;;10.38;3.03;;;16.10;99.90;;;;;;5029792;28;20555;-80
2022/05/13 09:12:27;;;;;;;12.80;3.40;;;16.20;99.90;;;;;;5055913;28;20087;-80
2022/05/13 09:15:08;;;;;;;12.18;3.13;;;16.10;99.90;;;;;;5037856;28;20052;-81
2022/05/13 09:17:55;;;;;;;11.00;3.00;;;16.10;99.90;;;;;;5038282;28;20051;-81
2022/05/13 09:20:23;;;;;;;11.90;2.83;;;16.10;99.90;;;;;;5038102;28;20481;-81
2022/05/13 09:22:56;;;;;;;7.65;2.90;;;16.20;99.90;;;;;;5037773;28;20048;-80
2022/05/13 09:25:27;;;;;;;10.82;2.80;;;16.20;99.90;;;;;;5038105;28;20136;-80
2022/05/13 09:28:05;;;;;;;10.50;3.20;;;16.30;99.90;;;;;;5041528;28;20048;-80
2022/05/13 09:30:37;;;;;;;13.82;3.28;;;16.00;99.90;;;;;;4991117;28;20481;-81
2022/05/13 09:33:23;;;;;;;13.60;3.28;;;15.70;99.90;;;;;;5029896;28;20428;-81
2022/05/13 09:35:58;;;;;;;13.68;4.07;;;15.60;99.90;;;;;;5032189;28;20436;-80
2022/05/13 09:38:32;;;;;;;13.90;3.90;;;15.60;99.90;;;;;;5022504;28;20493;-82
2022/05/13 09:41:01;;;;;;;14.77;3.72;;;15.80;99.90;;;;;;5035706;28;20049;-81
2022/05/13 09:43:43;;;;;;;10.48;3.28;;;16.00;99.90;;;;;;5033911;28;20055;-80
2022/05/13 09:46:24;;;;;;;9.23;3.38;;;16.10;99.90;;;;;;5042467;28;20268;-81
2022/05/13 09:48:57;;;;;;;12.15;3.20;;;16.00;99.90;;;;;;5053929;28;20048;-80
2022/05/13 09:51:28;;;;;;;14.60;3.40;;;15.90;99.90;;;;;;5053337;28;20049;-80
2022/05/13 09:54:05;;;;;;;15.75;4.03;;;16.10;99.90;;;;;;5055010;28;20049;-80
2022/05/13 09:56:39;;;;;;;18.70;4.25;;;16.10;99.90;;;;;;5055339;28;20132;-80
2022/05/13 09:59:12;;;;;;;15.05;3.45;;;16.30;99.90;;;;;;5055003;28;20488;-92
2022/05/13 10:01:38;;;;;;;12.13;4.22;;;16.50;99.90;;;;;;5053931;28;20051;-80
2022/05/13 10:04:22;;;;;;;15.48;4.38;;;16.60;99.90;;;;;;5053110;28;20040;-79
2022/05/13 10:06:49;;;;;;;11.55;3.33;;;16.80;99.90;;;;;;5053645;28;20052;-80
2022/05/13 10:15:07;;;;;;;16.73;4.15;;;16.90;99.90;;;;;;5053316;28;20057;-80
2022/05/13 10:17:34;;;;;;;13.73;2.88;;;16.70;99.90;;;;;;5053507;28;20087;-80
2022/05/13 10:20:09;;;;;;;17.15;3.88;;;16.50;99.90;;;;;;5053414;28;20554;-80
2022/05/13 10:22:43;;;;;;;14.15;3.90;;;16.40;99.90;;;;;;5054613;28;20037;-80
2022/05/13 10:25:14;;;;;;;13.82;4.25;;;16.30;99.90;;;;;;5054452;28;20052;-80
2022/05/13 10:27:46;;;;;;;19.65;3.88;;;16.10;99.90;;;;;;5053277;28;20052;-81
2022/05/13 10:30:47;;;;;;;12.82;3.40;;;16.20;99.90;;;;;;5053472;28;20051;-81
2022/05/13 10:33:29;;;;;;;16.80;3.90;;;16.50;99.90;;;;;;5054332;28;20041;-80
2022/05/13 10:36:13;;;;;;;14.40;4.65;;;16.50;99.90;;;;;;5054641;28;20120;-80
2022/05/13 10:38:47;;;;;;;14.63;3.55;;;16.60;99.90;;;;;;5052759;28;20102;-81
2022/05/13 10:41:25;;;;;;;12.80;3.88;;;16.60;99.90;;;;;;5052265;28;20048;-81
2022/05/13 10:44:06;;;;;;;21.27;3.90;;;16.50;99.90;;;;;;5052849;28;20057;-82
2022/05/13 10:46:37;;;;;;;11.93;3.28;;;16.50;99.90;;;;;;5052900;28;20095;-81
2022/05/13 10:49:03;;;;;;;17.17;3.65;;;16.60;99.90;;;;;;5053159;28;20052;-81
2022/05/13 10:51:39;;;;;;;16.63;3.90;;;16.50;99.90;;;;;;5053176;28;20187;-81
2022/05/13 10:54:43;;;;;;;12.23;3.42;;;16.40;99.90;;;;;;5054239;28;20064;-80
2022/05/13 10:57:14;;;;;;;12.35;3.90;;;16.50;99.90;;;;;;5052679;28;20385;-81
2022/05/13 11:00:02;;;;;;;12.52;3.40;;;16.40;99.90;;;;;;5052854;28;20116;-81
2022/05/13 11:03:21;;;;;;;15.43;3.90;;;16.30;99.90;;;;;;5052801;28;20048;-81
2022/05/13 11:06:06;;;;;;;13.43;4.30;;;16.30;99.90;;;;;;5049709;28;20057;-82
2022/05/13 11:08:52;;;;;;;11.73;3.50;;;16.80;99.90;;;;;;5053003;28;20059;-82
2022/05/13 11:11:27;;;;;;;13.43;3.92;;;16.80;99.90;;;;;;5053359;28;20056;-81
2022/05/13 11:14:08;;;;;;;13.32;3.78;;;17.00;99.90;;;;;;5052530;28;20057;-81
2022/05/13 11:16:54;;;;;;;15.27;3.70;;;17.10;99.90;;;;;;5054108;28;20076;-82
2022/05/13 11:19:29;;;;;;;13.05;3.80;;;17.00;99.90;;;;;;5052612;28;20063;-82
2022/05/13 11:22:02;;;;;;;18.40;4.68;;;17.10;99.90;;;;;;5052674;28;20454;-82
2022/05/13 11:27:43;;;;;;;15.85;4.18;;;17.00;99.90;;;;;;5052283;28;20533;-82
2022/05/13 11:30:12;;;;;;;15.50;4.43;;;17.00;99.90;;;;;;5052268;28;20048;-82
2022/05/13 11:33:19;;;;;;;16.63;4.38;;;16.90;99.90;;;;;;5052226;28;20076;-82
2022/05/13 11:36:37;;;;;;;12.63;3.70;;;16.70;99.90;;;;;;5053688;28;20048;-82
2022/05/13 11:39:43;;;;;;;11.38;4.00;;;16.70;99.90;;;;;;5019784;28;20142;-82
2022/05/13 11:43:18;;;;;;;14.43;3.53;;;16.60;99.90;;;;;;5003542;28;20061;-82
2022/05/13 11:45:32;;;;;;;14.07;4.00;;;16.60;99.90;;;;;;5052710;28;20079;-82
2022/05/13 11:48:15;;;;;;;13.63;3.90;;;16.70;99.90;;;;;;5035519;28;20045;-82
2022/05/13 11:50:41;;;;;;;;;;;16.70;99.90;;;;;;5035612;28;20095;-82
2022/05/13 11:53:06;;;;;;;13.52;3.67;;;17.10;99.90;;;;;;5035600;28;19928;-82
2022/05/13 11:55:35;;;;;;;11.38;3.83;;;17.50;99.90;;;;;;5053232;28;20078;-82
2022/05/13 11:58:01;;;;;;;16.15;3.83;;;17.30;99.90;;;;;;5053370;28;20091;-82
2022/05/13 12:00:38;;;;;;;17.95;4.20;;;17.30;99.90;;;;;;5035308;28;20053;-82
2022/05/13 12:03:14;;;;;;;16.70;4.50;;;17.20;99.90;;;;;;5053397;28;20044;-82
2022/05/13 12:05:54;;;;;;;16.83;4.22;;;17.10;99.90;;;;;;5053144;28;20045;-82
2022/05/13 12:08:24;;;;;;;12.43;3.90;;;17.00;99.90;;;;;;5053206;28;20037;-81
2022/05/13 12:10:52;;;;;;;16.05;3.90;;;16.80;99.90;;;;;;5053194;28;20099;-82
2022/05/13 12:13:56;;;;;;;13.43;3.38;;;16.70;99.90;;;;;;5053024;28;20080;-82
2022/05/13 12:16:42;;;;;;;13.63;3.70;;;16.60;99.90;;;;;;4994934;28;20046;-82
2022/05/13 12:19:50;;;;;;;17.17;4.32;;;16.50;99.90;;;;;;5034037;28;20420;-81
2022/05/13 12:22:38;;;;;;;13.30;4.32;;;16.40;99.90;;;;;;5016422;28;20569;-82
2022/05/13 12:25:07;;;;;;;18.35;4.75;;;16.40;99.90;;;;;;5053054;28;20457;-82
2022/05/13 12:27:44;;;;;;;15.07;3.17;;;16.50;99.90;;;;;;5035322;28;20553;-82
2022/05/13 12:30:31;;;;;;;14.65;4.57;;;16.40;99.90;;;;;;5035224;28;20396;-83
2022/05/13 12:33:24;;;;;;;14.40;4.40;;;16.30;99.90;;;;;;5035202;28;20041;-83
2022/05/13 12:39:10;;;;;;;13.48;3.85;;;16.50;99.90;;;;;;5053949;28;20080;-82
2022/05/13 12:41:46;;;;;;;12.57;3.75;;;16.50;99.90;;;;;;5054972;28;20566;-82
2022/05/13 12:44:24;;;;;;;12.82;3.75;;;16.40;99.90;;;;;;5054804;28;20044;-83
2022/05/13 12:46:51;;;;;;;14.35;4.18;;;16.50;99.90;;;;;;5054757;28;20063;-82
2022/05/13 12:49:25;;;;;;;16.02;4.13;;;16.50;99.90;;;;;;5055029;28;20040;-82
2022/05/13 12:52:12;;;;;;;17.00;4.10;;;16.30;99.90;;;;;;5055060;28;20055;-82
2022/05/13 12:54:46;;;;;;;15.40;3.70;;;16.30;99.90;;;;;;5054733;28;20067;-82
2022/05/13 12:57:18;;;;;;;20.83;4.68;;;16.30;99.90;;;;;;5054694;28;20171;-89
2022/05/13 12:59:50;;;;;;;18.30;4.05;;;16.10;99.90;;;;;;5055991;28;20044;-95
2022/05/13 13:02:22;;;;;;;9.73;3.42;;;16.10;99.90;;;;;;5057480;28;20480;-89
2022/05/13 13:07:26;;;;;;;15.40;3.42;;;16.00;99.90;;;;;;4979123;28;20091;-83
2022/05/13 13:09:51;;;;;;;11.13;3.53;;;16.00;99.90;;;;;;4979406;28;20474;-82
2022/05/13 13:12:58;;;;;;;14.40;3.45;;;16.00;99.90;;;;;;4996822;28;20073;-81
2022/05/13 13:15:32;;;;;;;16.98;3.42;;;16.00;99.90;;;;;;5015378;28;20540;-84
2022/05/13 13:18:05;;;;;;;12.18;3.70;;;16.10;99.90;;;;;;5016499;28;20060;-85
2022/05/13 13:20:32;;;;;;;21.13;3.97;;;16.20;99.90;;;;;;4999183;28;20058;-82
2022/05/13 13:23:08;;;;;;;16.08;4.00;;;16.30;99.90;;;;;;5016239;28;20108;-81
2022/05/13 13:25:37;;;;;;;14.30;3.80;;;16.40;99.90;;;;;;5016450;28;20057;-81
2022/05/13 13:28:07;;;;;;;14.43;3.38;;;16.50;99.90;;;;;;4998704;28;20544;-95